Time;durP1;ratioP1;P1;durP2;ratioP2;P2;SDS_P1;SDS_P2;PMS_P1;PMS_P2;Temp;Humidity;BMP_temperature;BMP_pressure;BME280_temperature;BME280_humidity;BME280_pressure;Samples;Min_cycle;Max_cycle;Signal;HPM_P1;HPM_P2
2021/05/28 07:06:27;;;;;;;2.72;1.00;;;23.70;43.70;;;;;;5042658;28;20443;-57
2021/05/28 07:08:53;;;;;;;0.60;0.60;;;22.90;44.50;;;;;;4978694;28;100211;-57
2021/05/28 07:11:18;;;;;;;1.45;0.80;;;22.80;44.60;;;;;;5046111;28;20033;-56
2021/05/28 07:13:44;;;;;;;1.75;0.75;;;22.70;44.60;;;;;;5039711;28;20451;-66
2021/05/28 07:16:10;;;;;;;6.07;1.02;;;22.70;45.00;;;;;;4987941;28;80242;-70
2021/05/28 07:18:35;;;;;;;4.35;0.63;;;22.70;44.60;;;;;;5048054;28;20128;-64
2021/05/28 07:21:02;;;;;;;1.33;0.70;;;22.70;45.40;;;;;;5049010;28;20032;-63
2021/05/28 07:23:29;;;;;;;1.20;0.85;;;22.60;44.80;;;;;;5031597;28;20390;-56
2021/05/28 07:25:55;;;;;;;2.97;0.73;;;22.60;44.80;;;;;;5016855;28;20040;-57
2021/05/28 07:28:21;;;;;;;5.20;0.80;;;22.50;45.10;;;;;;5047428;28;20037;-59
2021/05/28 07:30:47;;;;;;;5.57;0.93;;;22.50;45.10;;;;;;5048440;28;20094;-54
2021/05/28 07:33:13;;;;;;;2.55;1.10;;;22.60;45.10;;;;;;5050969;28;20387;-56
2021/05/28 07:35:39;;;;;;;2.55;0.93;;;22.60;45.00;;;;;;5049796;28;20041;-57
2021/05/28 07:38:05;;;;;;;2.33;0.77;;;22.60;45.00;;;;;;5049188;28;20391;-56
2021/05/28 07:40:30;;;;;;;3.08;1.13;;;22.60;45.00;;;;;;5048752;28;20025;-56
2021/05/28 07:42:56;;;;;;;2.92;1.00;;;22.60;45.10;;;;;;5048495;28;22050;-55
2021/05/28 07:45:22;;;;;;;2.33;0.95;;;22.60;45.00;;;;;;5048659;28;20483;-56
2021/05/28 07:47:48;;;;;;;1.00;0.70;;;22.60;45.00;;;;;;5044597;28;20039;-55
2021/05/28 07:50:13;;;;;;;2.90;1.35;;;22.60;45.00;;;;;;5042163;28;20048;-57
2021/05/28 07:52:39;;;;;;;1.15;0.90;;;22.60;45.00;;;;;;5047894;28;20024;-57
2021/05/28 07:55:05;;;;;;;1.58;0.70;;;22.60;45.00;;;;;;5049608;28;20021;-55
2021/05/28 07:57:31;;;;;;;0.88;0.70;;;22.60;45.00;;;;;;5051380;28;21001;-56
2021/05/28 07:59:57;;;;;;;0.70;0.70;;;22.60;45.00;;;;;;5049326;28;20174;-56
2021/05/28 08:02:22;;;;;;;1.23;0.55;;;22.60;45.00;;;;;;5032918;28;20032;-56
2021/05/28 08:04:48;;;;;;;0.68;0.63;;;22.60;45.00;;;;;;5048021;28;20049;-56
2021/05/28 08:07:14;;;;;;;0.80;0.63;;;22.60;45.00;;;;;;5049377;28;20084;-56
2021/05/28 08:09:39;;;;;;;1.05;0.63;;;22.60;45.00;;;;;;5047776;28;20083;-56
2021/05/28 08:12:06;;;;;;;0.50;0.50;;;22.60;45.00;;;;;;5050134;28;20559;-56
2021/05/28 08:14:31;;;;;;;2.05;0.70;;;22.60;44.90;;;;;;5049054;28;20036;-56
2021/05/28 08:16:57;;;;;;;0.68;0.60;;;22.60;44.90;;;;;;5040686;28;20033;-55
2021/05/28 08:19:23;;;;;;;0.60;0.60;;;22.60;44.90;;;;;;5035714;28;20032;-56
2021/05/28 08:21:49;;;;;;;4.47;0.65;;;22.60;44.90;;;;;;5035847;28;20387;-57
2021/05/28 08:24:15;;;;;;;1.15;0.85;;;22.60;44.90;;;;;;5030612;28;20368;-56
2021/05/28 08:26:41;;;;;;;3.60;0.90;;;22.70;44.80;;;;;;5029155;28;20035;-55
2021/05/28 08:29:08;;;;;;;0.95;0.80;;;22.70;44.80;;;;;;5031111;28;20578;-56
2021/05/28 08:31:34;;;;;;;0.50;0.50;;;22.70;44.80;;;;;;5002688;28;63564;-57
2021/05/28 08:34:00;;;;;;;0.50;0.50;;;22.70;44.70;;;;;;5029373;28;20059;-57
2021/05/28 08:36:26;;;;;;;2.08;0.57;;;22.70;44.70;;;;;;4990080;28;20041;-59
2021/05/28 08:38:52;;;;;;;2.33;0.70;;;22.70;44.80;;;;;;5017825;28;20036;-58
2021/05/28 08:41:18;;;;;;;3.17;1.02;;;22.70;44.80;;;;;;5012344;28;20530;-58
2021/05/28 08:43:44;;;;;;;4.63;0.80;;;22.70;44.70;;;;;;5007375;28;20037;-55
2021/05/28 08:46:14;;;;;;;2.53;0.70;;;22.80;44.80;;;;;;5013476;28;20344;-55
2021/05/28 08:48:41;;;;;;;1.55;0.85;;;22.70;44.70;;;;;;5013210;28;20022;-56
2021/05/28 08:51:07;;;;;;;1.15;0.68;;;22.70;44.70;;;;;;5014154;28;20034;-58
2021/05/28 08:53:33;;;;;;;1.48;0.80;;;22.70;44.80;;;;;;5014564;28;20057;-58
2021/05/28 08:55:59;;;;;;;4.82;0.93;;;22.70;44.70;;;;;;5013499;28;20072;-57
2021/05/28 08:58:26;;;;;;;0.63;0.60;;;22.70;44.50;;;;;;5010698;28;20049;-59
2021/05/28 09:00:52;;;;;;;3.30;0.70;;;22.80;44.60;;;;;;5012682;28;20029;-56
2021/05/28 09:03:23;;;;;;;2.97;0.65;;;22.70;44.60;;;;;;5012401;28;20176;-58
2021/05/28 09:05:50;;;;;;;4.30;0.70;;;22.70;44.70;;;;;;5013656;28;20124;-57
2021/05/28 09:08:26;;;;;;;1.60;0.73;;;22.70;44.60;;;;;;5011589;28;20459;-57
2021/05/28 09:10:54;;;;;;;2.42;0.63;;;22.70;44.50;;;;;;5014893;28;20033;-61
2021/05/28 09:13:24;;;;;;;6.25;1.30;;;22.80;44.90;;;;;;5016932;28;20022;-59
2021/05/28 09:16:13;;;;;;;3.17;0.70;;;22.70;44.00;;;;;;5005974;28;20029;-56
2021/05/28 09:18:46;;;;;;;0.98;0.60;;;22.70;44.70;;;;;;5014228;28;20018;-56
2021/05/28 09:21:31;;;;;;;7.88;0.98;;;22.80;44.70;;;;;;5011869;28;20041;-56
2021/05/28 09:23:58;;;;;;;1.02;0.60;;;22.90;44.30;;;;;;4969639;28;76898;-57
2021/05/28 09:26:25;;;;;;;3.03;0.52;;;22.90;44.40;;;;;;5024349;28;20437;-57
2021/05/28 09:28:54;;;;;;;1.15;0.70;;;22.80;44.60;;;;;;5010889;28;20035;-57
2021/05/28 09:31:32;;;;;;;1.05;0.50;;;22.80;44.70;;;;;;5009413;28;20533;-57
2021/05/28 09:33:58;;;;;;;0.38;0.38;;;22.80;44.70;;;;;;5010211;28;20503;-56
2021/05/28 09:36:27;;;;;;;2.50;0.95;;;22.90;44.80;;;;;;5010092;28;20029;-56
2021/05/28 09:39:08;;;;;;;0.90;0.50;;;22.80;44.70;;;;;;5008286;28;20644;-56
2021/05/28 09:41:46;;;;;;;1.20;0.57;;;22.90;44.90;;;;;;5008403;28;20628;-58
2021/05/28 09:44:23;;;;;;;1.05;0.60;;;22.80;44.80;;;;;;5010015;28;20033;-57
2021/05/28 09:47:13;;;;;;;3.03;0.90;;;22.90;44.80;;;;;;5009456;28;20044;-57
2021/05/28 09:49:50;;;;;;;3.33;0.60;;;22.90;44.80;;;;;;5007485;28;20629;-57
2021/05/28 09:52:19;;;;;;;3.75;0.70;;;22.90;44.80;;;;;;5008496;28;20103;-58
2021/05/28 09:55:02;;;;;;;5.07;1.40;;;22.90;44.80;;;;;;5006019;28;20026;-57
2021/05/28 09:57:38;;;;;;;5.35;0.63;;;22.90;44.80;;;;;;5009502;28;20028;-57
2021/05/28 10:00:09;;;;;;;0.50;0.50;;;22.90;44.80;;;;;;5009506;28;20029;-57
2021/05/28 10:02:45;;;;;;;0.98;0.60;;;22.90;44.80;;;;;;5007044;28;20041;-56
2021/05/28 10:05:13;;;;;;;0.85;0.52;;;22.90;44.80;;;;;;5009375;28;20034;-57
2021/05/28 10:07:39;;;;;;;2.33;0.70;;;22.90;44.80;;;;;;5006555;28;20041;-58
2021/05/28 10:10:06;;;;;;;0.90;0.57;;;22.90;44.80;;;;;;5009705;28;20310;-57
2021/05/28 10:12:32;;;;;;;1.60;0.55;;;22.90;44.80;;;;;;5007919;28;20137;-57
2021/05/28 10:14:57;;;;;;;4.03;0.52;;;23.00;44.80;;;;;;5008658;28;20077;-58
2021/05/28 10:17:24;;;;;;;0.80;0.60;;;23.00;44.80;;;;;;5009918;28;20542;-57
2021/05/28 10:19:50;;;;;;;0.52;0.52;;;23.00;44.90;;;;;;5009358;28;20053;-58
2021/05/28 10:22:18;;;;;;;0.60;0.50;;;23.00;44.90;;;;;;5007669;28;20034;-57
2021/05/28 10:24:45;;;;;;;0.43;0.43;;;23.00;44.80;;;;;;5008051;28;20033;-57
2021/05/28 10:27:18;;;;;;;0.40;0.40;;;23.00;44.90;;;;;;5008372;28;20045;-58
2021/05/28 10:29:52;;;;;;;0.82;0.68;;;23.00;44.80;;;;;;5007933;28;20025;-57
2021/05/28 10:32:18;;;;;;;1.48;0.45;;;23.00;44.90;;;;;;4961222;28;20064;-57
2021/05/28 10:35:06;;;;;;;3.00;0.68;;;23.00;44.90;;;;;;5014707;28;22346;-57
2021/05/28 10:37:32;;;;;;;2.03;0.60;;;23.00;45.00;;;;;;5013191;28;20082;-62
2021/05/28 10:39:59;;;;;;;1.23;0.85;;;23.10;44.70;;;;;;5014155;28;20043;-61
2021/05/28 10:42:25;;;;;;;1.33;0.60;;;23.10;44.70;;;;;;5027352;28;20528;-61
2021/05/28 10:44:50;;;;;;;0.73;0.60;;;23.10;44.90;;;;;;5011806;28;20084;-60
2021/05/28 10:47:16;;;;;;;3.42;0.65;;;23.00;45.00;;;;;;5012511;28;20408;-61
2021/05/28 10:49:44;;;;;;;2.00;0.75;;;23.00;45.10;;;;;;5010105;28;20030;-61
2021/05/28 10:52:12;;;;;;;0.95;0.65;;;23.00;45.20;;;;;;5008492;28;20033;-61
2021/05/28 10:54:41;;;;;;;2.58;0.60;;;23.10;45.30;;;;;;5009447;28;20447;-61
2021/05/28 10:57:26;;;;;;;3.00;0.70;;;23.10;45.30;;;;;;5008161;28;20026;-62
2021/05/28 10:59:54;;;;;;;2.13;0.70;;;23.10;45.40;;;;;;5010614;28;20581;-65
2021/05/28 11:02:44;;;;;;;0.73;0.50;;;23.10;45.70;;;;;;5009056;28;20476;-66
2021/05/28 11:05:10;;;;;;;0.68;0.55;;;23.20;45.70;;;;;;5016443;28;20046;-66
2021/05/28 11:07:40;;;;;;;1.10;0.70;;;23.20;45.50;;;;;;5010986;28;20034;-66
2021/05/28 11:10:24;;;;;;;1.48;0.57;;;23.20;45.60;;;;;;5029799;28;20017;-66
2021/05/28 11:12:50;;;;;;;0.40;0.40;;;23.20;45.60;;;;;;5011598;28;20044;-67
2021/05/28 11:15:25;;;;;;;0.40;0.40;;;23.20;45.60;;;;;;5014561;28;20033;-67
2021/05/28 11:17:54;;;;;;;0.45;0.45;;;23.20;45.60;;;;;;5013515;28;20022;-67
2021/05/28 11:20:27;;;;;;;6.38;0.55;;;23.10;45.60;;;;;;5008544;28;20042;-67
2021/05/28 11:22:53;;;;;;;2.35;0.90;;;23.10;45.70;;;;;;5010770;28;20026;-67
2021/05/28 11:25:24;;;;;;;0.57;0.50;;;23.10;45.60;;;;;;5016544;28;20041;-67
2021/05/28 11:28:08;;;;;;;0.35;0.32;;;23.10;45.60;;;;;;5015293;28;20113;-66
2021/05/28 11:30:43;;;;;;;1.20;0.68;;;23.10;45.70;;;;;;5015399;28;20103;-66
2021/05/28 11:33:29;;;;;;;0.55;0.47;;;23.10;45.70;;;;;;5015031;28;20503;-67
2021/05/28 11:35:54;;;;;;;1.58;0.40;;;23.10;45.60;;;;;;5011670;28;20488;-68
2021/05/28 11:38:32;;;;;;;0.68;0.40;;;23.10;45.60;;;;;;5015117;28;20029;-67
2021/05/28 11:40:58;;;;;;;0.55;0.40;;;23.10;45.60;;;;;;5013292;28;20111;-67
2021/05/28 11:43:24;;;;;;;0.73;0.50;;;23.10;45.60;;;;;;5015497;28;20366;-67
2021/05/28 11:45:54;;;;;;;0.28;0.28;;;23.10;45.60;;;;;;5017048;28;20416;-67
2021/05/28 11:48:22;;;;;;;0.40;0.40;;;23.10;45.60;;;;;;5017328;28;20087;-67
2021/05/28 11:50:47;;;;;;;0.82;0.50;;;23.10;45.60;;;;;;5030913;28;20033;-68
2021/05/28 11:53:13;;;;;;;2.65;0.50;;;23.10;45.50;;;;;;5020662;28;20373;-67
2021/05/28 11:55:46;;;;;;;0.50;0.50;;;23.10;45.60;;;;;;5022907;28;20033;-67
2021/05/28 11:58:13;;;;;;;0.50;0.50;;;23.10;45.50;;;;;;5022203;28;20088;-67
2021/05/28 12:00:41;;;;;;;0.57;0.57;;;23.10;45.50;;;;;;5021094;28;20112;-68
2021/05/28 12:03:08;;;;;;;1.05;0.50;;;23.10;45.50;;;;;;5019236;28;20030;-67
2021/05/28 12:05:39;;;;;;;0.57;0.57;;;23.10;45.50;;;;;;5017543;28;20082;-66
2021/05/28 12:08:10;;;;;;;1.63;0.50;;;23.10;45.50;;;;;;5018235;28;20037;-67
2021/05/28 12:10:38;;;;;;;0.77;0.77;;;23.10;45.50;;;;;;5020133;28;20045;-67
2021/05/28 12:13:06;;;;;;;0.50;0.50;;;23.10;45.50;;;;;;5020679;28;20021;-67
2021/05/28 12:15:50;;;;;;;0.60;0.60;;;23.10;45.50;;;;;;5019248;28;20048;-67
2021/05/28 12:18:21;;;;;;;0.50;0.50;;;23.10;45.50;;;;;;5021002;28;20076;-67
2021/05/28 12:20:54;;;;;;;0.45;0.45;;;23.10;45.50;;;;;;5019354;28;20484;-68
2021/05/28 12:23:25;;;;;;;0.32;0.30;;;23.10;45.50;;;;;;5019222;28;20021;-67
2021/05/28 12:26:01;;;;;;;0.47;0.47;;;23.10;45.40;;;;;;5017433;28;20392;-67
2021/05/28 12:28:34;;;;;;;0.50;0.50;;;23.10;45.40;;;;;;5020574;28;20079;-67
2021/05/28 12:31:17;;;;;;;0.80;0.40;;;23.10;45.50;;;;;;5018787;28;20388;-66
2021/05/28 12:33:44;;;;;;;1.88;1.50;;;23.10;45.40;;;;;;5018006;28;20026;-69
2021/05/28 12:36:12;;;;;;;1.25;0.77;;;23.00;45.10;;;;;;5014290;28;20026;-66
2021/05/28 12:38:40;;;;;;;0.40;0.40;;;22.90;45.50;;;;;;5018365;28;20029;-58
2021/05/28 12:41:08;;;;;;;0.93;0.52;;;22.90;45.70;;;;;;5033365;28;20110;-57
2021/05/28 12:43:37;;;;;;;3.97;0.90;;;22.90;46.00;;;;;;5016320;28;20045;-59
2021/05/28 12:46:02;;;;;;;9.05;0.95;;;22.90;46.40;;;;;;5014074;28;20859;-59
2021/05/28 12:48:42;;;;;;;3.90;0.70;;;23.00;46.50;;;;;;5017930;28;20026;-60
2021/05/28 12:51:08;;;;;;;4.25;1.00;;;23.00;46.10;;;;;;5015920;28;20092;-59
2021/05/28 12:53:38;;;;;;;3.97;0.77;;;23.10;46.10;;;;;;5013877;28;20037;-60
2021/05/28 12:56:05;;;;;;;2.58;0.70;;;23.10;46.10;;;;;;5014959;28;20100;-60
2021/05/28 12:58:32;;;;;;;1.60;0.75;;;23.10;45.90;;;;;;5017705;28;20033;-60
2021/05/28 13:01:18;;;;;;;3.03;0.90;;;23.20;45.90;;;;;;5012546;28;20033;-60
2021/05/28 13:03:45;;;;;;;1.92;0.75;;;23.20;45.90;;;;;;5013667;28;20494;-58
2021/05/28 13:06:32;;;;;;;11.25;1.05;;;23.30;46.00;;;;;;5016113;28;20046;-59
2021/05/28 13:09:08;;;;;;;1.10;1.00;;;23.30;45.90;;;;;;5018035;28;20492;-59
2021/05/28 13:11:57;;;;;;;3.92;0.80;;;23.20;46.00;;;;;;5012844;28;20029;-58
2021/05/28 13:14:34;;;;;;;1.42;0.73;;;23.20;46.30;;;;;;5014793;28;20033;-60
2021/05/28 13:17:35;;;;;;;0.85;0.85;;;23.10;46.30;;;;;;5016656;28;20021;-59
2021/05/28 13:20:03;;;;;;;3.70;0.60;;;23.20;46.70;;;;;;4960731;28;20497;-58
2021/05/28 13:22:40;;;;;;;2.15;0.70;;;23.20;47.10;;;;;;5005753;28;20042;-59
2021/05/28 13:25:30;;;;;;;0.60;0.60;;;23.20;47.00;;;;;;5018924;28;20496;-59
2021/05/28 13:28:20;;;;;;;0.65;0.60;;;23.30;47.10;;;;;;5017057;28;20049;-60
2021/05/28 13:31:06;;;;;;;1.17;0.50;;;23.30;47.10;;;;;;5010565;28;20483;-59
2021/05/28 13:33:37;;;;;;;1.75;0.55;;;23.40;47.50;;;;;;5014138;28;20037;-59
2021/05/28 13:36:04;;;;;;;2.72;0.65;;;23.40;47.10;;;;;;5015447;28;20064;-60
2021/05/28 13:38:31;;;;;;;1.23;0.60;;;23.40;47.10;;;;;;5015987;28;20084;-59
2021/05/28 13:40:58;;;;;;;1.05;0.93;;;23.50;47.50;;;;;;5018088;28;20029;-58
2021/05/28 13:43:25;;;;;;;1.60;0.68;;;23.50;47.60;;;;;;5016602;28;20030;-59
2021/05/28 13:45:56;;;;;;;3.70;0.90;;;23.50;47.20;;;;;;5014903;28;20631;-59
2021/05/28 13:48:22;;;;;;;1.15;0.60;;;23.60;46.90;;;;;;5014414;28;20116;-59
2021/05/28 13:50:47;;;;;;;3.60;0.70;;;23.60;47.60;;;;;;5015649;28;21017;-59
2021/05/28 13:53:16;;;;;;;1.27;0.82;;;23.70;47.30;;;;;;5016155;28;20045;-57
2021/05/28 13:55:43;;;;;;;2.10;0.90;;;23.60;47.40;;;;;;5029551;28;20112;-58
2021/05/28 13:58:12;;;;;;;4.55;0.90;;;23.50;46.50;;;;;;5014864;28;20092;-57
2021/05/28 14:00:39;;;;;;;1.58;0.80;;;23.40;46.70;;;;;;5015074;28;20555;-58
2021/05/28 14:03:06;;;;;;;2.05;1.25;;;23.40;47.20;;;;;;5030368;28;20046;-58
2021/05/28 14:05:33;;;;;;;3.92;0.80;;;23.30;47.50;;;;;;5014912;28;20427;-57
2021/05/28 14:07:59;;;;;;;0.77;0.77;;;23.30;47.40;;;;;;5015322;28;20116;-57
2021/05/28 14:10:25;;;;;;;2.58;0.80;;;23.50;48.10;;;;;;5015726;28;20056;-57
2021/05/28 14:12:51;;;;;;;5.03;1.20;;;23.50;48.10;;;;;;5009850;28;20180;-58
2021/05/28 14:15:19;;;;;;;2.75;1.60;;;23.30;45.90;;;;;;5010114;28;20432;-57
2021/05/28 14:17:45;;;;;;;1.73;1.45;;;22.90;44.00;;;;;;5013673;28;20026;-58
2021/05/28 14:20:11;;;;;;;1.20;1.10;;;22.60;45.50;;;;;;5010707;28;20037;-58
2021/05/28 14:22:38;;;;;;;4.07;1.40;;;22.50;46.20;;;;;;5011964;28;20032;-59
2021/05/28 14:25:06;;;;;;;2.42;1.30;;;22.30;46.00;;;;;;5013346;28;20033;-61
2021/05/28 14:27:32;;;;;;;1.30;1.20;;;22.00;45.50;;;;;;5013219;28;20113;-62
2021/05/28 14:29:58;;;;;;;2.20;1.25;;;21.70;45.90;;;;;;5015799;28;20018;-61
2021/05/28 14:32:26;;;;;;;1.80;1.30;;;21.60;46.20;;;;;;5015097;28;20038;-62
2021/05/28 14:34:52;;;;;;;1.50;1.27;;;21.30;46.60;;;;;;5012798;28;20028;-61
2021/05/28 14:37:18;;;;;;;3.97;1.40;;;21.10;46.20;;;;;;5015203;28;20039;-63
2021/05/28 14:39:45;;;;;;;1.75;0.98;;;21.00;45.90;;;;;;5006115;28;20036;-61
2021/05/28 14:42:11;;;;;;;10.07;1.63;;;21.10;46.00;;;;;;5014857;28;20546;-63
2021/05/28 14:44:37;;;;;;;4.10;1.10;;;21.30;46.60;;;;;;5009415;28;20449;-62
2021/05/28 14:47:03;;;;;;;3.75;1.45;;;21.60;46.20;;;;;;5013374;28;20496;-62
2021/05/28 14:49:29;;;;;;;2.40;1.17;;;21.60;44.50;;;;;;5014116;28;20025;-62
2021/05/28 14:51:55;;;;;;;1.20;1.10;;;21.70;44.70;;;;;;5015661;28;20037;-62
2021/05/28 14:54:21;;;;;;;1.77;1.45;;;21.90;43.70;;;;;;5014635;28;20048;-62
2021/05/28 14:56:46;;;;;;;2.33;1.17;;;21.90;42.30;;;;;;5013508;28;20322;-61
2021/05/28 14:59:12;;;;;;;1.63;0.90;;;21.70;42.60;;;;;;5015744;28;20025;-62
2021/05/28 15:01:38;;;;;;;4.13;1.10;;;21.80;42.20;;;;;;5012762;28;20558;-61
2021/05/28 15:04:05;;;;;;;2.47;1.45;;;22.10;42.50;;;;;;5014581;28;20021;-65
2021/05/28 15:06:30;;;;;;;0.90;0.90;;;22.10;41.60;;;;;;5012594;28;20072;-62
2021/05/28 15:08:56;;;;;;;1.30;1.20;;;22.20;42.60;;;;;;5012523;28;20555;-61
2021/05/28 15:11:22;;;;;;;1.67;0.95;;;22.40;41.50;;;;;;5013953;28;20400;-61
2021/05/28 15:13:48;;;;;;;3.88;1.20;;;22.40;41.50;;;;;;5011542;28;20449;-61
2021/05/28 15:16:13;;;;;;;1.38;1.13;;;22.40;41.20;;;;;;5012598;28;20040;-62
2021/05/28 15:18:39;;;;;;;3.33;1.17;;;22.40;40.60;;;;;;5015874;28;20403;-63
2021/05/28 15:21:06;;;;;;;2.50;1.70;;;22.40;41.20;;;;;;5015033;28;20025;-63
2021/05/28 15:23:33;;;;;;;3.47;1.40;;;22.60;42.60;;;;;;5014065;28;20033;-61
2021/05/28 15:25:58;;;;;;;13.57;1.70;;;22.50;42.80;;;;;;5026139;28;20425;-61
2021/05/28 15:28:24;;;;;;;3.42;1.10;;;22.10;43.80;;;;;;5018621;28;20423;-60
2021/05/28 15:30:50;;;;;;;1.70;0.90;;;22.10;44.30;;;;;;5020026;28;20065;-60
2021/05/28 15:33:16;;;;;;;1.80;1.10;;;22.40;43.10;;;;;;5020405;28;20029;-60
2021/05/28 15:35:43;;;;;;;1.13;0.98;;;22.40;42.70;;;;;;5021112;28;21038;-61
2021/05/28 15:38:10;;;;;;;4.65;1.10;;;22.30;41.80;;;;;;5018856;28;20513;-59
2021/05/28 15:40:38;;;;;;;3.22;1.08;;;22.40;42.80;;;;;;5018784;28;20026;-60
2021/05/28 15:43:08;;;;;;;1.48;0.90;;;22.60;41.50;;;;;;5019740;28;20072;-60
2021/05/28 15:45:34;;;;;;;5.88;1.10;;;22.50;42.10;;;;;;5018128;28;20041;-60
2021/05/28 15:48:01;;;;;;;5.05;1.30;;;22.40;41.00;;;;;;5020293;28;20026;-61
2021/05/28 15:50:35;;;;;;;3.42;1.05;;;22.50;41.70;;;;;;5019302;28;20091;-59
2021/05/28 15:53:12;;;;;;;0.80;0.77;;;22.60;41.90;;;;;;5017505;28;20033;-60
2021/05/28 15:55:39;;;;;;;1.17;1.08;;;22.90;41.70;;;;;;5010141;28;20041;-60
2021/05/28 15:58:05;;;;;;;0.70;0.57;;;23.10;41.20;;;;;;5016671;28;20025;-59
2021/05/28 16:00:32;;;;;;;0.68;0.68;;;23.10;40.60;;;;;;5017997;28;20043;-59
2021/05/28 16:03:02;;;;;;;1.30;1.00;;;23.20;41.00;;;;;;5018010;28;20036;-60
2021/05/28 16:05:28;;;;;;;5.80;0.98;;;23.20;41.00;;;;;;5019392;28;20041;-60
2021/05/28 16:07:54;;;;;;;0.63;0.63;;;23.20;40.80;;;;;;5018747;28;20040;-60
2021/05/28 16:10:19;;;;;;;0.50;0.50;;;23.20;41.10;;;;;;5019870;28;20271;-59
2021/05/28 16:12:45;;;;;;;7.78;0.70;;;23.20;41.20;;;;;;5019630;28;20034;-58
2021/05/28 16:15:11;;;;;;;0.88;0.60;;;23.20;41.20;;;;;;5015063;28;20052;-58
2021/05/28 16:17:38;;;;;;;1.85;0.70;;;23.30;41.30;;;;;;5016718;28;20045;-59
2021/05/28 16:20:05;;;;;;;5.40;0.70;;;23.20;41.10;;;;;;5017038;28;20338;-57
2021/05/28 16:22:30;;;;;;;0.60;0.60;;;23.30;41.40;;;;;;5016007;28;20275;-58
2021/05/28 16:24:56;;;;;;;1.48;0.70;;;23.30;41.70;;;;;;5018006;28;20312;-59
2021/05/28 16:27:22;;;;;;;2.83;0.70;;;23.40;42.00;;;;;;5016983;28;20071;-59
2021/05/28 16:29:48;;;;;;;7.13;0.73;;;23.50;42.20;;;;;;5017826;28;20596;-60
2021/05/28 16:32:14;;;;;;;26.67;1.98;;;23.50;42.20;;;;;;5017889;28;20099;-60
2021/05/28 16:34:40;;;;;;;7.65;1.10;;;23.60;42.30;;;;;;5017839;28;20116;-59
2021/05/28 16:37:06;;;;;;;7.57;0.90;;;23.60;42.30;;;;;;5017486;28;20491;-59
2021/05/28 16:39:31;;;;;;;3.92;0.70;;;23.70;42.40;;;;;;5015758;28;20497;-59
2021/05/28 16:41:57;;;;;;;2.58;1.05;;;23.70;42.30;;;;;;5015520;28;20025;-61
2021/05/28 16:44:23;;;;;;;2.17;1.33;;;23.70;42.40;;;;;;5016605;28;20038;-57
2021/05/28 16:46:49;;;;;;;2.67;0.70;;;23.70;42.40;;;;;;5014296;28;20091;-58
2021/05/28 16:49:15;;;;;;;3.45;0.70;;;23.70;42.40;;;;;;5013397;28;20036;-58
2021/05/28 16:51:43;;;;;;;2.28;0.43;;;23.80;42.50;;;;;;5012703;28;20373;-57
2021/05/28 16:54:09;;;;;;;0.88;0.50;;;23.70;42.50;;;;;;5011790;28;20510;-57
2021/05/28 16:56:35;;;;;;;1.73;0.70;;;23.80;42.50;;;;;;5012286;28;20032;-58
2021/05/28 16:59:01;;;;;;;0.82;0.52;;;23.80;42.60;;;;;;5013527;28;20106;-58
2021/05/28 17:01:27;;;;;;;2.83;0.50;;;23.80;42.60;;;;;;5012032;28;20032;-57
2021/05/28 17:03:53;;;;;;;0.93;0.70;;;23.80;42.70;;;;;;5027922;28;20029;-57
2021/05/28 17:06:19;;;;;;;4.03;0.40;;;23.80;42.70;;;;;;5015824;28;20125;-59
2021/05/28 17:08:45;;;;;;;1.15;0.50;;;23.80;42.70;;;;;;5013485;28;20032;-60
2021/05/28 17:11:11;;;;;;;2.08;0.50;;;23.80;42.80;;;;;;5012320;28;20795;-60
2021/05/28 17:13:37;;;;;;;4.93;0.60;;;23.80;42.50;;;;;;5012442;28;20405;-58
2021/05/28 17:16:03;;;;;;;0.80;0.65;;;23.80;42.70;;;;;;5015466;28;20484;-54
2021/05/28 17:18:31;;;;;;;0.50;0.50;;;23.80;42.30;;;;;;5013365;28;20036;-56
2021/05/28 17:20:57;;;;;;;0.65;0.60;;;23.80;42.70;;;;;;5013347;28;20030;-59
2021/05/28 17:23:24;;;;;;;4.03;0.77;;;23.80;42.90;;;;;;5015029;28;20042;-62
2021/05/28 17:25:50;;;;;;;1.98;0.50;;;24.00;43.10;;;;;;5016214;28;20042;-62
2021/05/28 17:28:16;;;;;;;1.90;0.70;;;24.20;42.90;;;;;;5018477;28;20403;-62
2021/05/28 17:30:42;;;;;;;0.85;0.63;;;24.30;42.80;;;;;;5016906;28;20037;-62
2021/05/28 17:33:10;;;;;;;1.67;0.50;;;24.40;42.80;;;;;;5017471;28;20025;-62
2021/05/28 17:35:37;;;;;;;4.60;0.50;;;24.40;42.70;;;;;;5017099;28;20437;-65
2021/05/28 17:38:02;;;;;;;2.03;1.15;;;24.40;42.70;;;;;;5030168;28;20025;-65
2021/05/28 17:40:28;;;;;;;1.70;0.73;;;24.50;42.80;;;;;;5016474;28;20043;-65
2021/05/28 17:42:55;;;;;;;5.47;0.70;;;24.50;42.80;;;;;;5015207;28;20026;-62
2021/05/28 17:45:21;;;;;;;2.15;0.50;;;24.50;42.90;;;;;;5013591;28;20056;-63
2021/05/28 17:47:48;;;;;;;4.25;0.70;;;24.50;42.90;;;;;;5017256;28;20053;-62
2021/05/28 17:50:17;;;;;;;0.95;0.40;;;24.50;42.90;;;;;;5015763;28;20029;-63
2021/05/28 17:52:43;;;;;;;0.65;0.60;;;24.50;42.90;;;;;;5031438;28;20030;-64
2021/05/28 17:55:11;;;;;;;2.28;0.50;;;24.50;42.90;;;;;;5018234;28;20485;-65
2021/05/28 17:57:38;;;;;;;3.53;0.77;;;24.50;43.00;;;;;;5016421;28;20034;-63
2021/05/28 18:00:06;;;;;;;1.70;0.80;;;24.50;43.20;;;;;;5016927;28;20022;-66
2021/05/28 18:02:32;;;;;;;2.42;0.70;;;24.50;43.20;;;;;;5015903;28;20032;-65
2021/05/28 18:04:58;;;;;;;2.10;0.60;;;24.50;43.30;;;;;;5017119;28;20045;-66
2021/05/28 18:07:23;;;;;;;4.20;1.13;;;24.50;43.30;;;;;;5014249;28;20774;-63
2021/05/28 18:09:49;;;;;;;2.03;0.85;;;24.50;43.30;;;;;;5015664;28;20030;-65
2021/05/28 18:12:15;;;;;;;1.08;0.60;;;24.50;43.30;;;;;;5013663;28;20037;-63
2021/05/28 18:14:41;;;;;;;2.53;0.70;;;24.40;43.40;;;;;;5018004;28;20068;-63
2021/05/28 18:17:07;;;;;;;2.13;0.95;;;24.40;43.40;;;;;;5016980;28;20492;-62
2021/05/28 18:19:32;;;;;;;0.60;0.60;;;24.40;43.50;;;;;;5012192;28;20106;-62
2021/05/28 18:21:58;;;;;;;3.33;0.80;;;24.40;43.60;;;;;;5014164;28;20029;-65
2021/05/28 18:24:25;;;;;;;1.20;0.73;;;24.40;43.70;;;;;;5012978;28;20075;-66
2021/05/28 18:26:51;;;;;;;2.10;0.75;;;24.40;43.60;;;;;;5019161;28;20163;-67
2021/05/28 18:29:17;;;;;;;3.75;1.00;;;24.40;43.70;;;;;;5015663;28;20026;-69
2021/05/28 18:31:43;;;;;;;1.75;0.75;;;24.40;43.80;;;;;;5014525;28;20498;-67
2021/05/28 18:34:09;;;;;;;0.63;0.50;;;24.40;43.80;;;;;;4995508;28;20026;-66
2021/05/28 18:36:37;;;;;;;2.17;0.60;;;24.40;43.60;;;;;;5030307;28;20079;-66
2021/05/28 18:39:05;;;;;;;1.23;1.05;;;24.40;43.70;;;;;;5014646;28;20137;-64
2021/05/28 18:41:32;;;;;;;0.80;0.80;;;24.40;43.90;;;;;;5015686;28;20030;-65
2021/05/28 18:43:57;;;;;;;2.15;0.70;;;24.40;43.70;;;;;;5017242;28;20072;-64
2021/05/28 18:46:23;;;;;;;0.65;0.65;;;24.40;43.90;;;;;;5015648;28;20045;-65
2021/05/28 18:48:49;;;;;;;13.30;0.80;;;24.40;44.00;;;;;;5015329;28;20033;-62
2021/05/28 18:51:16;;;;;;;3.90;1.35;;;24.30;44.40;;;;;;5015815;28;20150;-64
2021/05/28 18:53:43;;;;;;;2.08;0.70;;;24.40;44.10;;;;;;5015309;28;20017;-63
2021/05/28 18:56:12;;;;;;;0.80;0.55;;;24.30;43.40;;;;;;5015108;28;20379;-63
2021/05/28 18:58:43;;;;;;;2.40;0.68;;;24.30;43.40;;;;;;5018336;28;20044;-62
2021/05/28 19:01:09;;;;;;;0.63;0.63;;;24.30;43.50;;;;;;5016558;28;20033;-60
2021/05/28 19:03:35;;;;;;;2.55;1.42;;;24.20;44.20;;;;;;5016880;28;20029;-60
2021/05/28 19:06:03;;;;;;;3.70;0.73;;;24.10;43.90;;;;;;5016261;28;20081;-61
2021/05/28 19:08:30;;;;;;;1.63;0.60;;;24.00;44.40;;;;;;5011950;28;20026;-62
2021/05/28 19:10:58;;;;;;;1.48;0.57;;;24.00;44.40;;;;;;5016326;28;20037;-61
2021/05/28 19:13:26;;;;;;;0.60;0.60;;;23.90;44.30;;;;;;5016330;28;21898;-61
2021/05/28 19:15:52;;;;;;;1.63;0.70;;;23.90;44.40;;;;;;5011953;28;20029;-62
2021/05/28 19:18:18;;;;;;;0.60;0.60;;;23.90;44.50;;;;;;5015147;28;20033;-60
2021/05/28 19:20:47;;;;;;;3.47;0.93;;;23.80;44.40;;;;;;5017026;28;20029;-60
2021/05/28 19:23:14;;;;;;;0.73;0.60;;;23.80;44.60;;;;;;5015858;28;20025;-61
2021/05/28 19:25:43;;;;;;;0.68;0.68;;;23.70;44.70;;;;;;5014604;28;20061;-61
2021/05/28 19:28:10;;;;;;;2.25;0.80;;;23.70;44.70;;;;;;5013380;28;20021;-60
2021/05/28 19:30:37;;;;;;;1.25;0.80;;;23.70;44.70;;;;;;5011891;28;20037;-61
2021/05/28 19:33:04;;;;;;;0.73;0.73;;;23.60;44.80;;;;;;5014839;28;20032;-60
2021/05/28 19:35:30;;;;;;;2.25;0.50;;;23.60;44.80;;;;;;5016396;28;20163;-61
2021/05/28 19:37:56;;;;;;;1.33;0.68;;;23.50;44.90;;;;;;5017758;28;20029;-60
2021/05/28 19:40:24;;;;;;;0.80;0.80;;;23.60;44.90;;;;;;5015886;28;20373;-61
2021/05/28 19:42:51;;;;;;;0.70;0.60;;;23.50;44.90;;;;;;5015837;28;20112;-61
2021/05/28 19:45:18;;;;;;;0.52;0.52;;;23.50;45.00;;;;;;5016099;28;20040;-61
2021/05/28 19:47:45;;;;;;;0.60;0.60;;;23.50;45.00;;;;;;5013469;28;20066;-60
2021/05/28 19:50:14;;;;;;;1.13;0.70;;;23.50;45.00;;;;;;5014680;28;20067;-61
2021/05/28 19:52:43;;;;;;;1.05;0.70;;;23.50;45.10;;;;;;5014145;28;20033;-60
2021/05/28 19:57:54;;;;;;;0.88;0.80;;;23.40;45.10;;;;;;5015979;28;20100;-60
2021/05/28 20:00:22;;;;;;;0.77;0.77;;;23.40;45.20;;;;;;5015859;28;20030;-60